Hovedside
METAR-TAF:

METAR-TAF

Lufthavner :

Brussel lufthavn

Brussel, Belgia

breddegrad: 50-54N, lengdegrad: 004-32E, høyde over havet: 55 m

Gjeldene værobservasjon

Denne rapporten ble laget for 37 minutter siden, klokken 15:20 UTC
Vind 3 kt fra Øst-sørøst
Temperatur 4°C
Luftfuktighet 81%
Trykk 1014 hPa
Sikt 10 km eller mer
Spredte skyer i en høyde av 2000 ft

METAR: EBBR 201520Z 12003KT 9999 SCT020 04/01 Q1014 NOSIG

Tid: 16:57 (15:57 UTC)

Varsel

Denne rapporten ble laget for 4 timer og 55 minutter siden, klokken 11:02 UTC
Varsel gyldig fra 20. klokken 12 UTC til 21. klokken 18 UTC
Vind 6 kt fra Øst-sørøst
Sikt 10 km eller mer
ingen skyer under 1500 m og ingen bygeskyer
Midlertidig
fra 21. klokken 02 UTC til 21. klokken 10 UTC
Sikt: 3000 m
dis
Sannsynlighet 30% :
Midlertidig
fra 21. klokken 03 UTC til 21. klokken 09 UTC
Sikt: 1500 m
Grunne tåke

TAF: EBBR 201102Z 2012/2118 11006KT CAVOK TEMPO 2102/2110 3000 BR PROB30 TEMPO 2103/2109 1500 MIFG

Værobservasjoner og værvarsel for over 4000 flyplasser (METAR- og TAF-rapporter).

Tilgjengelige stasjoner er representert av de røde og gule prikkene på kartet.

Hold musepekeren over prikken for å se navnet på stasjonen.

Klikk så for å se værobservasjoner og -varsler.

For å forandre kartet kan du klikke på den grønne knappen med svart kryss for å zoome inn, på den grønne knappen med strek for å zoome ut, eller på de grønne pilene for å se tilstøtende kart.


METAR-TAF: